Time;durP1;ratioP1;P1;durP2;ratioP2;P2;SDS_P1;SDS_P2;PMS_P1;PMS_P2;Temp;Humidity;BMP_temperature;BMP_pressure;BME280_temperature;BME280_humidity;BME280_pressure;Samples;Min_cycle;Max_cycle;Signal;HPM_P1;HPM_P2
2022/11/30 00:01:09;;;;;;;30.77;13.07;;;;;;;;;;5028844;28;20021;-59
2022/11/30 00:03:34;;;;;;;28.92;13.20;;;;;;;;;;5031452;28;20013;-59
2022/11/30 00:06:03;;;;;;;30.80;14.00;;;;;;;;;;5031717;28;20032;-57
2022/11/30 00:08:28;;;;;;;30.30;12.98;;;;;;;;;;5031646;28;20474;-58
2022/11/30 00:10:53;;;;;;;28.70;12.87;;;;;;;;;;5030063;28;20024;-59
2022/11/30 00:13:18;;;;;;;28.27;12.87;;;;;;;;;;5028098;28;20021;-58
2022/11/30 00:15:43;;;;;;;28.63;12.43;;;;;;;;;;5031363;28;20021;-58
2022/11/30 00:18:09;;;;;;;27.73;12.80;;;;;;;;;;5031088;28;20017;-58
2022/11/30 00:20:34;;;;;;;28.70;12.68;;;;;;;;;;5031451;28;20018;-59
2022/11/30 00:22:59;;;;;;;28.20;12.83;;;;;;;;;;5030755;28;20033;-58
2022/11/30 00:25:24;;;;;;;31.00;13.33;;;;;;;;;;5031316;28;20057;-59
2022/11/30 00:27:49;;;;;;;28.80;12.75;;;;;;;;;;5031323;28;20069;-58
2022/11/30 00:30:15;;;;;;;28.97;12.73;;;;;;;;;;5031410;28;20028;-58
2022/11/30 00:32:40;;;;;;;32.73;14.33;;;;;;;;;;5028733;28;20048;-58
2022/11/30 00:35:05;;;;;;;29.70;13.60;;;;;;;;;;5028191;28;20473;-59
2022/11/30 00:37:30;;;;;;;26.88;12.57;;;;;;;;;;5029418;28;20041;-58
2022/11/30 00:39:56;;;;;;;27.47;12.70;;;;;;;;;;5030261;28;20068;-58
2022/11/30 00:42:21;;;;;;;27.00;12.10;;;;;;;;;;5031591;28;20950;-58
2022/11/30 00:44:46;;;;;;;24.60;11.68;;;;;;;;;;5027640;28;20021;-59
2022/11/30 00:47:11;;;;;;;29.67;13.70;;;;;;;;;;5031147;28;20034;-59
2022/11/30 00:49:36;;;;;;;24.93;11.53;;;;;;;;;;5030628;28;20033;-59
2022/11/30 00:52:02;;;;;;;26.03;11.40;;;;;;;;;;5031141;28;20155;-59
2022/11/30 00:54:27;;;;;;;29.07;13.03;;;;;;;;;;5030771;28;20509;-59
2022/11/30 00:56:52;;;;;;;24.73;12.20;;;;;;;;;;5037625;28;20464;-59
2022/11/30 00:59:17;;;;;;;27.00;12.30;;;;;;;;;;5033119;28;20079;-59
2022/11/30 01:01:43;;;;;;;27.15;11.98;;;;;;;;;;5034834;28;20025;-59
2022/11/30 01:04:08;;;;;;;26.90;12.63;;;;;;;;;;5030809;28;20051;-59
2022/11/30 01:06:33;;;;;;;27.80;12.83;;;;;;;;;;5029897;28;20460;-59
2022/11/30 01:08:58;;;;;;;25.83;12.07;;;;;;;;;;5030496;28;20440;-58
2022/11/30 01:11:25;;;;;;;25.27;12.05;;;;;;;;;;5030839;28;20400;-58
2022/11/30 01:13:51;;;;;;;27.85;12.15;;;;;;;;;;5029780;28;20028;-58
2022/11/30 01:16:18;;;;;;;28.23;12.90;;;;;;;;;;5030314;28;20021;-58
2022/11/30 01:18:43;;;;;;;27.13;13.07;;;;;;;;;;5030252;28;20067;-58
2022/11/30 01:21:09;;;;;;;28.05;12.00;;;;;;;;;;5031721;28;20683;-58
2022/11/30 01:23:35;;;;;;;26.65;12.43;;;;;;;;;;5030253;28;20032;-58
2022/11/30 01:26:00;;;;;;;26.67;13.07;;;;;;;;;;5028559;28;20041;-59
2022/11/30 01:28:25;;;;;;;25.43;11.97;;;;;;;;;;5023569;28;20028;-60
2022/11/30 01:30:57;;;;;;;23.43;11.47;;;;;;;;;;5028264;28;20451;-59
2022/11/30 01:33:23;;;;;;;25.42;12.52;;;;;;;;;;5030800;28;20061;-58
2022/11/30 01:35:48;;;;;;;26.83;11.93;;;;;;;;;;5030449;28;20057;-60
2022/11/30 01:38:13;;;;;;;28.30;11.70;;;;;;;;;;5028835;28;20418;-59
2022/11/30 01:40:38;;;;;;;27.47;12.03;;;;;;;;;;5030239;28;20017;-59
2022/11/30 01:43:08;;;;;;;24.73;12.07;;;;;;;;;;5030586;28;20038;-59
2022/11/30 01:45:33;;;;;;;25.38;11.82;;;;;;;;;;5030237;28;20031;-59
2022/11/30 01:47:59;;;;;;;29.00;12.77;;;;;;;;;;5028272;28;20100;-59
2022/11/30 01:50:33;;;;;;;25.83;11.88;;;;;;;;;;5029964;28;20029;-59
2022/11/30 01:52:58;;;;;;;26.40;12.55;;;;;;;;;;5030605;28;20025;-59
2022/11/30 01:55:26;;;;;;;24.63;11.27;;;;;;;;;;5029610;28;20432;-58
2022/11/30 01:57:56;;;;;;;27.10;12.73;;;;;;;;;;5027836;28;20461;-59
2022/11/30 02:00:21;;;;;;;22.27;10.90;;;;;;;;;;5028062;28;20381;-59
2022/11/30 02:02:49;;;;;;;26.08;12.82;;;;;;;;;;5029408;28;20027;-59
2022/11/30 02:05:15;;;;;;;28.95;12.82;;;;;;;;;;5027631;28;20090;-58
2022/11/30 02:07:40;;;;;;;25.30;12.45;;;;;;;;;;5029731;28;20469;-59
2022/11/30 02:10:06;;;;;;;24.87;11.93;;;;;;;;;;5025566;28;20043;-58
2022/11/30 02:12:34;;;;;;;25.20;12.30;;;;;;;;;;5028701;28;20480;-58
2022/11/30 02:15:04;;;;;;;26.92;12.13;;;;;;;;;;5029721;28;20028;-58
2022/11/30 02:17:29;;;;;;;27.60;12.30;;;;;;;;;;5029556;28;20076;-58
2022/11/30 02:20:13;;;;;;;24.20;11.18;;;;;;;;;;5027962;28;20377;-58
2022/11/30 02:22:57;;;;;;;29.67;12.68;;;;;;;;;;5028853;28;20067;-58
2022/11/30 02:25:23;;;;;;;27.30;12.82;;;;;;;;;;5029334;28;20056;-58
2022/11/30 02:28:06;;;;;;;24.57;10.97;;;;;;;;;;5029315;28;20029;-59
2022/11/30 02:30:34;;;;;;;27.27;12.25;;;;;;;;;;5026668;28;20116;-59
2022/11/30 02:33:04;;;;;;;29.67;13.05;;;;;;;;;;5027006;28;20374;-58
2022/11/30 02:35:35;;;;;;;27.35;11.88;;;;;;;;;;5020486;28;20017;-58
2022/11/30 02:38:02;;;;;;;25.38;11.88;;;;;;;;;;5029727;28;20034;-59
2022/11/30 02:40:27;;;;;;;29.00;12.57;;;;;;;;;;5027833;28;20155;-58
2022/11/30 02:42:54;;;;;;;27.53;12.40;;;;;;;;;;5029018;28;20049;-58
2022/11/30 02:45:19;;;;;;;;;;;;;;;;;;5028501;28;20061;-58
2022/11/30 02:47:48;;;;;;;25.55;11.38;;;;;;;;;;5028602;28;19963;-58
2022/11/30 02:50:16;;;;;;;25.27;12.07;;;;;;;;;;5027762;28;20018;-58
2022/11/30 02:52:41;;;;;;;26.23;12.57;;;;;;;;;;5028503;28;20396;-57
2022/11/30 02:55:07;;;;;;;28.77;12.40;;;;;;;;;;5028809;28;20018;-58
2022/11/30 02:57:33;;;;;;;29.70;12.60;;;;;;;;;;5029655;28;20040;-58
2022/11/30 02:59:59;;;;;;;29.10;12.85;;;;;;;;;;5027024;28;20021;-58
2022/11/30 03:02:25;;;;;;;27.75;12.18;;;;;;;;;;5025879;28;20033;-58
2022/11/30 03:04:50;;;;;;;26.87;11.63;;;;;;;;;;5029028;28;20104;-58
2022/11/30 03:07:15;;;;;;;29.17;13.40;;;;;;;;;;5029139;28;20499;-59
2022/11/30 03:09:40;;;;;;;25.80;11.87;;;;;;;;;;5028557;28;20108;-58
2022/11/30 03:12:05;;;;;;;30.33;12.80;;;;;;;;;;5026802;28;20166;-58
2022/11/30 03:14:30;;;;;;;26.40;12.00;;;;;;;;;;5028450;28;20095;-58
2022/11/30 03:16:56;;;;;;;25.43;11.83;;;;;;;;;;5026696;28;20110;-58
2022/11/30 03:19:21;;;;;;;26.63;11.25;;;;;;;;;;5028315;28;20017;-58
2022/11/30 03:21:46;;;;;;;27.57;11.53;;;;;;;;;;5026119;28;20056;-60
2022/11/30 03:24:11;;;;;;;25.67;11.67;;;;;;;;;;5027078;28;20494;-58
2022/11/30 03:26:37;;;;;;;29.58;13.07;;;;;;;;;;5028620;28;20032;-57
2022/11/30 03:29:02;;;;;;;27.53;12.03;;;;;;;;;;5026219;28;20575;-57
2022/11/30 03:31:27;;;;;;;28.87;11.33;;;;;;;;;;5026837;28;20452;-58
2022/11/30 03:33:53;;;;;;;26.70;12.55;;;;;;;;;;5028615;28;20098;-58
2022/11/30 03:36:18;;;;;;;30.70;13.13;;;;;;;;;;5032945;28;20506;-58
2022/11/30 03:38:43;;;;;;;28.53;12.33;;;;;;;;;;5032820;28;20041;-57
2022/11/30 03:41:13;;;;;;;27.43;12.73;;;;;;;;;;5029730;28;20056;-58
2022/11/30 03:43:38;;;;;;;28.25;12.43;;;;;;;;;;5032327;28;20083;-58
2022/11/30 03:46:03;;;;;;;29.25;12.60;;;;;;;;;;5031078;28;20380;-57
2022/11/30 03:48:29;;;;;;;27.37;12.17;;;;;;;;;;5031150;28;20049;-58
2022/11/30 03:50:55;;;;;;;27.77;12.38;;;;;;;;;;5029969;28;20076;-57
2022/11/30 03:53:21;;;;;;;28.53;12.53;;;;;;;;;;5032112;28;20033;-58
2022/11/30 03:55:50;;;;;;;27.33;12.18;;;;;;;;;;5033839;28;20025;-57
2022/11/30 03:58:15;;;;;;;29.77;12.77;;;;;;;;;;5031731;28;20060;-57
2022/11/30 04:00:40;;;;;;;29.15;12.82;;;;;;;;;;5032501;28;20029;-57
2022/11/30 04:03:05;;;;;;;27.80;12.87;;;;;;;;;;5030765;28;20033;-58
2022/11/30 04:05:30;;;;;;;29.17;12.70;;;;;;;;;;5029750;28;20082;-58
2022/11/30 04:07:56;;;;;;;29.87;12.63;;;;;;;;;;5030563;28;20041;-58
2022/11/30 04:10:22;;;;;;;29.37;13.00;;;;;;;;;;5029792;28;20102;-59
2022/11/30 04:12:47;;;;;;;30.00;13.10;;;;;;;;;;5028581;28;20041;-59
2022/11/30 04:15:13;;;;;;;34.27;13.33;;;;;;;;;;5029046;28;20029;-59
2022/11/30 04:17:38;;;;;;;30.33;12.60;;;;;;;;;;5030659;28;20033;-59
2022/11/30 04:20:03;;;;;;;27.85;12.57;;;;;;;;;;5029880;28;20380;-60
2022/11/30 04:22:28;;;;;;;31.63;13.00;;;;;;;;;;5031271;28;20029;-59
2022/11/30 04:24:54;;;;;;;28.17;12.27;;;;;;;;;;5031852;28;20106;-59
2022/11/30 04:27:19;;;;;;;30.40;12.83;;;;;;;;;;5029653;28;20029;-59
2022/11/30 04:29:44;;;;;;;31.88;13.60;;;;;;;;;;5030100;28;20456;-59
2022/11/30 04:32:09;;;;;;;28.87;12.70;;;;;;;;;;5028999;28;20029;-59
2022/11/30 04:34:34;;;;;;;29.23;13.17;;;;;;;;;;5027508;28;20045;-59
2022/11/30 04:37:00;;;;;;;30.83;13.23;;;;;;;;;;5026867;28;20041;-59
2022/11/30 04:39:25;;;;;;;30.50;12.83;;;;;;;;;;5029547;28;20451;-58
2022/11/30 04:41:50;;;;;;;28.67;12.90;;;;;;;;;;5036088;28;20030;-59
2022/11/30 04:44:15;;;;;;;33.13;13.83;;;;;;;;;;5035880;28;20524;-60
2022/11/30 04:46:40;;;;;;;30.63;13.57;;;;;;;;;;5031094;28;20117;-59
2022/11/30 04:49:05;;;;;;;31.07;13.90;;;;;;;;;;5032301;28;20034;-59
2022/11/30 04:51:30;;;;;;;34.67;14.15;;;;;;;;;;5037543;28;20112;-59
2022/11/30 04:53:56;;;;;;;31.03;13.77;;;;;;;;;;5038112;28;20025;-59
2022/11/30 04:56:21;;;;;;;32.23;13.60;;;;;;;;;;5030042;28;20026;-58
2022/11/30 04:58:46;;;;;;;35.70;14.37;;;;;;;;;;5033758;28;20021;-59
2022/11/30 05:01:11;;;;;;;30.20;13.30;;;;;;;;;;5033687;28;20052;-59
2022/11/30 05:03:36;;;;;;;30.77;14.27;;;;;;;;;;5035051;28;20026;-59
2022/11/30 05:06:02;;;;;;;31.57;13.93;;;;;;;;;;5046389;28;20098;-58
2022/11/30 05:08:27;;;;;;;31.30;13.53;;;;;;;;;;5036756;28;20088;-59
2022/11/30 05:10:53;;;;;;;33.50;13.97;;;;;;;;;;5030813;28;20028;-59
2022/11/30 05:13:18;;;;;;;32.92;14.05;;;;;;;;;;5030187;28;20491;-58
2022/11/30 05:15:43;;;;;;;32.33;14.10;;;;;;;;;;5030657;28;20025;-58
2022/11/30 05:18:09;;;;;;;30.60;12.93;;;;;;;;;;5026796;28;20480;-58
2022/11/30 05:20:34;;;;;;;30.37;13.27;;;;;;;;;;5029892;28;20392;-59
2022/11/30 05:22:59;;;;;;;29.10;12.93;;;;;;;;;;5027625;28;20017;-58
2022/11/30 05:25:24;;;;;;;27.77;12.77;;;;;;;;;;5029712;28;20052;-58
2022/11/30 05:27:49;;;;;;;30.27;13.47;;;;;;;;;;5027877;28;20044;-59
2022/11/30 05:30:15;;;;;;;29.83;12.73;;;;;;;;;;5033450;28;20160;-58
2022/11/30 05:32:40;;;;;;;28.40;12.60;;;;;;;;;;5039417;28;20025;-59
2022/11/30 05:35:05;;;;;;;28.92;13.05;;;;;;;;;;5029375;28;20451;-58
2022/11/30 05:37:30;;;;;;;29.17;13.00;;;;;;;;;;5024641;28;20429;-58
2022/11/30 05:39:56;;;;;;;28.02;11.95;;;;;;;;;;5027026;28;20032;-58
2022/11/30 05:42:21;;;;;;;30.92;12.20;;;;;;;;;;5027103;28;20032;-58
2022/11/30 05:44:46;;;;;;;30.90;12.80;;;;;;;;;;5025687;28;20377;-58
2022/11/30 05:47:12;;;;;;;26.70;11.67;;;;;;;;;;5024073;28;20033;-58
2022/11/30 05:49:37;;;;;;;26.90;11.57;;;;;;;;;;5026173;28;20435;-58
2022/11/30 05:52:02;;;;;;;25.77;10.97;;;;;;;;;;5027524;28;20447;-58
2022/11/30 05:54:27;;;;;;;26.57;12.03;;;;;;;;;;5027841;28;20057;-58
2022/11/30 05:56:52;;;;;;;28.17;11.73;;;;;;;;;;5022352;28;20017;-58
2022/11/30 05:59:18;;;;;;;30.98;11.85;;;;;;;;;;5027714;28;20032;-58
2022/11/30 06:01:43;;;;;;;28.93;11.77;;;;;;;;;;5027776;28;20057;-59
2022/11/30 06:04:08;;;;;;;28.30;12.45;;;;;;;;;;5026948;28;20032;-57
2022/11/30 06:06:33;;;;;;;29.90;12.67;;;;;;;;;;5020445;28;20053;-58
2022/11/30 06:08:58;;;;;;;29.10;13.07;;;;;;;;;;5025995;28;20470;-58
2022/11/30 06:11:24;;;;;;;26.50;10.90;;;;;;;;;;5025215;28;20405;-58
2022/11/30 06:13:49;;;;;;;24.30;11.40;;;;;;;;;;5027774;28;20078;-58
2022/11/30 06:16:14;;;;;;;26.30;11.97;;;;;;;;;;5026936;28;20389;-59
2022/11/30 06:18:39;;;;;;;28.80;12.67;;;;;;;;;;5027361;28;20633;-58
2022/11/30 06:21:06;;;;;;;30.02;12.45;;;;;;;;;;5029711;28;20518;-57
2022/11/30 06:23:32;;;;;;;27.20;11.27;;;;;;;;;;5027402;28;20025;-58
2022/11/30 06:25:57;;;;;;;25.85;11.40;;;;;;;;;;5028320;28;20424;-57
2022/11/30 06:28:23;;;;;;;28.83;11.93;;;;;;;;;;5028849;28;20032;-58
2022/11/30 06:30:48;;;;;;;30.42;11.98;;;;;;;;;;5030496;28;20489;-58
2022/11/30 06:33:14;;;;;;;28.70;11.80;;;;;;;;;;5030190;28;20024;-58
2022/11/30 06:35:45;;;;;;;26.63;11.77;;;;;;;;;;5030439;28;20045;-58
2022/11/30 06:38:10;;;;;;;26.70;11.20;;;;;;;;;;5028557;28;20097;-57
2022/11/30 06:40:36;;;;;;;27.20;11.80;;;;;;;;;;5030132;28;20100;-58
2022/11/30 06:43:01;;;;;;;31.00;12.43;;;;;;;;;;5029699;28;20028;-58
2022/11/30 06:45:26;;;;;;;28.27;12.17;;;;;;;;;;5022543;28;20512;-59
2022/11/30 06:47:53;;;;;;;30.33;12.73;;;;;;;;;;5015967;28;20026;-58
2022/11/30 06:50:18;;;;;;;28.52;11.05;;;;;;;;;;5023195;28;20025;-58
2022/11/30 06:52:43;;;;;;;25.07;11.17;;;;;;;;;;5013130;28;20083;-58
2022/11/30 06:55:08;;;;;;;29.70;12.33;;;;;;;;;;5010229;28;20022;-59
2022/11/30 06:57:34;;;;;;;29.00;12.43;;;;;;;;;;5027042;28;20044;-61
2022/11/30 06:59:59;;;;;;;29.63;11.77;;;;;;;;;;5028082;28;20489;-56
2022/11/30 07:02:24;;;;;;;26.50;11.27;;;;;;;;;;5022951;28;20061;-58
2022/11/30 07:04:49;;;;;;;31.37;12.67;;;;;;;;;;5017758;28;20037;-59
2022/11/30 07:07:15;;;;;;;28.63;12.18;;;;;;;;;;5025787;28;20063;-58
2022/11/30 07:09:40;;;;;;;27.20;12.20;;;;;;;;;;5022984;28;20037;-58
2022/11/30 07:12:06;;;;;;;28.10;11.70;;;;;;;;;;5023051;28;20128;-59
2022/11/30 07:14:31;;;;;;;30.23;12.15;;;;;;;;;;5030074;28;20437;-58
2022/11/30 07:16:56;;;;;;;29.35;12.00;;;;;;;;;;5028331;28;20022;-59
2022/11/30 07:19:21;;;;;;;28.17;12.23;;;;;;;;;;5028938;28;20057;-57
2022/11/30 07:21:47;;;;;;;27.60;12.05;;;;;;;;;;5029351;28;20029;-59
2022/11/30 07:26:57;;;;;;;27.33;11.73;;;;;;;;;;5028774;28;20200;-59
2022/11/30 07:29:22;;;;;;;26.33;11.38;;;;;;;;;;5028616;28;20028;-60
2022/11/30 07:31:51;;;;;;;31.97;13.27;;;;;;;;;;5028921;28;20068;-57
2022/11/30 07:34:17;;;;;;;30.27;12.35;;;;;;;;;;5023361;28;20037;-60
2022/11/30 07:36:42;;;;;;;26.80;11.10;;;;;;;;;;5028636;28;20044;-58
2022/11/30 07:39:08;;;;;;;27.67;12.48;;;;;;;;;;5029124;28;20024;-56
2022/11/30 07:41:33;;;;;;;26.17;11.53;;;;;;;;;;5029064;28;20544;-59
2022/11/30 07:43:58;;;;;;;29.17;12.60;;;;;;;;;;5027240;28;20552;-58
2022/11/30 07:46:23;;;;;;;30.67;12.53;;;;;;;;;;5026527;28;20017;-58
2022/11/30 07:48:48;;;;;;;29.67;12.00;;;;;;;;;;5029059;28;20450;-58
2022/11/30 07:51:18;;;;;;;30.17;12.67;;;;;;;;;;5029632;28;20036;-59
2022/11/30 07:53:43;;;;;;;28.08;12.00;;;;;;;;;;5026421;28;20043;-58
2022/11/30 07:56:14;;;;;;;26.98;11.95;;;;;;;;;;5027849;28;20604;-58
2022/11/30 07:58:39;;;;;;;28.45;12.20;;;;;;;;;;5029657;28;20100;-59
2022/11/30 08:01:06;;;;;;;29.63;12.70;;;;;;;;;;5029730;28;20105;-59
2022/11/30 08:03:31;;;;;;;28.42;12.02;;;;;;;;;;5029443;28;20044;-59
2022/11/30 08:06:01;;;;;;;28.67;12.48;;;;;;;;;;5028009;28;20044;-59
2022/11/30 08:08:33;;;;;;;30.08;12.30;;;;;;;;;;5029704;28;20091;-59
2022/11/30 08:10:58;;;;;;;29.90;12.60;;;;;;;;;;5029584;28;20231;-59
2022/11/30 08:13:24;;;;;;;27.50;12.68;;;;;;;;;;5029525;28;20722;-59
2022/11/30 08:15:49;;;;;;;26.88;12.70;;;;;;;;;;5027909;28;20021;-59
2022/11/30 08:18:14;;;;;;;29.83;12.43;;;;;;;;;;5029614;28;20072;-58
2022/11/30 08:20:39;;;;;;;28.23;12.83;;;;;;;;;;5033269;28;20464;-59
2022/11/30 08:23:05;;;;;;;31.43;13.27;;;;;;;;;;5031061;28;20029;-58
2022/11/30 08:25:30;;;;;;;28.00;12.20;;;;;;;;;;5033180;28;20021;-59
2022/11/30 08:27:55;;;;;;;28.63;12.77;;;;;;;;;;5032356;28;20099;-58
2022/11/30 08:30:21;;;;;;;28.43;12.07;;;;;;;;;;5033144;28;20021;-59
2022/11/30 08:32:46;;;;;;;32.53;12.43;;;;;;;;;;5030959;28;20051;-58
2022/11/30 08:35:11;;;;;;;28.47;12.53;;;;;;;;;;5032784;28;20019;-59
2022/11/30 08:37:37;;;;;;;27.77;12.37;;;;;;;;;;5031424;28;20427;-58
2022/11/30 08:40:02;;;;;;;28.08;12.73;;;;;;;;;;5032935;28;21055;-59
2022/11/30 08:42:27;;;;;;;29.02;13.40;;;;;;;;;;5032647;28;20379;-58
2022/11/30 08:44:53;;;;;;;26.27;12.10;;;;;;;;;;5032632;28;20021;-58
2022/11/30 08:47:18;;;;;;;26.57;11.77;;;;;;;;;;5031167;28;20021;-58
2022/11/30 08:49:43;;;;;;;28.33;11.82;;;;;;;;;;5032031;28;20029;-58
2022/11/30 08:52:08;;;;;;;27.60;12.43;;;;;;;;;;5030095;28;20468;-58
2022/11/30 08:54:33;;;;;;;32.60;12.67;;;;;;;;;;5031417;28;20022;-58
2022/11/30 08:56:58;;;;;;;26.97;11.97;;;;;;;;;;5030553;28;20160;-58
2022/11/30 08:59:24;;;;;;;26.37;12.27;;;;;;;;;;5030056;28;20025;-58
2022/11/30 09:01:49;;;;;;;26.87;13.03;;;;;;;;;;5032251;28;20546;-59
2022/11/30 09:04:14;;;;;;;29.00;12.13;;;;;;;;;;5032426;28;20030;-59
2022/11/30 09:06:40;;;;;;;26.80;12.10;;;;;;;;;;5032558;28;20075;-59
2022/11/30 09:09:05;;;;;;;30.00;12.95;;;;;;;;;;5030814;28;20037;-58
2022/11/30 09:11:32;;;;;;;25.98;12.20;;;;;;;;;;5031917;28;20140;-59
2022/11/30 09:13:58;;;;;;;24.75;11.35;;;;;;;;;;5032190;28;20030;-58
2022/11/30 09:16:24;;;;;;;26.38;11.85;;;;;;;;;;5032295;28;20021;-58
2022/11/30 09:18:49;;;;;;;26.80;11.90;;;;;;;;;;5031354;28;20055;-59
2022/11/30 09:21:16;;;;;;;28.17;12.00;;;;;;;;;;5032225;28;20041;-58
2022/11/30 09:23:41;;;;;;;25.95;11.73;;;;;;;;;;5031889;28;20028;-59
2022/11/30 09:26:08;;;;;;;26.23;12.10;;;;;;;;;;5032099;28;20022;-59
2022/11/30 09:28:34;;;;;;;28.73;11.45;;;;;;;;;;5030285;28;20369;-59
2022/11/30 09:31:06;;;;;;;29.88;12.02;;;;;;;;;;5032105;28;20029;-59
2022/11/30 09:33:32;;;;;;;26.75;12.13;;;;;;;;;;5031680;28;20172;-59
2022/11/30 09:35:58;;;;;;;27.33;12.88;;;;;;;;;;5031935;28;20104;-57
2022/11/30 09:38:23;;;;;;;24.73;11.43;;;;;;;;;;5031716;28;20013;-59
2022/11/30 09:40:53;;;;;;;25.40;11.53;;;;;;;;;;5030869;28;20022;-58
2022/11/30 09:43:18;;;;;;;27.23;12.07;;;;;;;;;;5031274;28;20036;-59
2022/11/30 09:45:47;;;;;;;28.85;11.95;;;;;;;;;;5031756;28;20025;-59
2022/11/30 09:48:19;;;;;;;24.95;11.57;;;;;;;;;;5031691;28;20037;-59
2022/11/30 09:50:46;;;;;;;25.20;11.30;;;;;;;;;;5029952;28;20030;-58
2022/11/30 09:53:20;;;;;;;28.85;12.18;;;;;;;;;;5031203;28;20021;-59
2022/11/30 09:55:45;;;;;;;25.95;11.60;;;;;;;;;;5031341;28;20468;-59
2022/11/30 09:58:15;;;;;;;26.33;11.33;;;;;;;;;;5031230;28;20107;-58
2022/11/30 10:00:40;;;;;;;24.52;10.98;;;;;;;;;;5030478;28;20044;-59
2022/11/30 10:03:06;;;;;;;26.50;11.90;;;;;;;;;;5031272;28;20461;-59
2022/11/30 10:05:31;;;;;;;25.45;11.15;;;;;;;;;;5031232;28;20098;-58
2022/11/30 10:08:11;;;;;;;24.30;10.87;;;;;;;;;;5031342;28;20018;-59
2022/11/30 10:10:42;;;;;;;24.50;11.15;;;;;;;;;;5030293;28;20029;-59
2022/11/30 10:13:26;;;;;;;28.20;12.32;;;;;;;;;;5030579;28;20394;-59
2022/11/30 10:16:10;;;;;;;25.02;11.68;;;;;;;;;;5031424;28;20025;-58
2022/11/30 10:18:41;;;;;;;23.73;10.52;;;;;;;;;;5030869;28;20047;-59
2022/11/30 10:21:06;;;;;;;27.77;12.48;;;;;;;;;;5029171;28;20033;-59
2022/11/30 10:23:56;;;;;;;26.83;12.33;;;;;;;;;;5030668;28;20205;-59
2022/11/30 10:26:26;;;;;;;24.85;11.32;;;;;;;;;;5030561;28;20037;-58
2022/11/30 10:28:52;;;;;;;25.15;11.00;;;;;;;;;;5030992;28;20384;-58
2022/11/30 10:31:18;;;;;;;26.05;11.88;;;;;;;;;;5027226;28;20025;-59
2022/11/30 10:33:51;;;;;;;24.35;11.32;;;;;;;;;;5030681;28;20430;-58
2022/11/30 10:36:28;;;;;;;22.63;10.63;;;;;;;;;;5030848;28;20025;-61
2022/11/30 10:38:57;;;;;;;22.70;10.82;;;;;;;;;;5030779;28;20025;-58
2022/11/30 10:41:25;;;;;;;25.90;11.13;;;;;;;;;;5028668;28;20025;-59
2022/11/30 10:43:54;;;;;;;24.88;10.57;;;;;;;;;;5028357;28;20025;-59
2022/11/30 10:46:27;;;;;;;24.75;11.23;;;;;;;;;;5030624;28;20093;-59
2022/11/30 10:49:01;;;;;;;22.13;10.20;;;;;;;;;;5030966;28;20021;-58
2022/11/30 10:51:28;;;;;;;23.58;10.57;;;;;;;;;;5030415;28;20264;-60
2022/11/30 10:53:53;;;;;;;23.20;10.40;;;;;;;;;;5029511;28;20071;-59
2022/11/30 10:56:18;;;;;;;24.40;10.85;;;;;;;;;;5030292;28;20021;-59
2022/11/30 10:58:53;;;;;;;25.50;11.55;;;;;;;;;;5030344;28;20084;-57
2022/11/30 11:01:34;;;;;;;23.55;10.70;;;;;;;;;;5030281;28;20029;-58
2022/11/30 11:04:05;;;;;;;24.50;11.55;;;;;;;;;;5029537;28;20491;-58
2022/11/30 11:06:31;;;;;;;24.58;10.68;;;;;;;;;;5030151;28;20357;-58
2022/11/30 11:08:57;;;;;;;22.23;9.98;;;;;;;;;;5030482;28;20100;-58
2022/11/30 11:11:26;;;;;;;22.80;10.57;;;;;;;;;;5030057;28;20200;-59
2022/11/30 11:13:51;;;;;;;22.10;11.07;;;;;;;;;;5029710;28;20025;-59
2022/11/30 11:16:16;;;;;;;26.53;11.50;;;;;;;;;;5028660;28;20105;-62
2022/11/30 11:18:52;;;;;;;25.57;11.53;;;;;;;;;;5030199;28;20033;-58
2022/11/30 11:21:19;;;;;;;22.75;10.43;;;;;;;;;;5030095;28;20455;-59
2022/11/30 11:23:45;;;;;;;23.35;10.15;;;;;;;;;;5029936;28;20026;-58
2022/11/30 11:26:21;;;;;;;22.98;10.00;;;;;;;;;;5027077;28;20406;-59
2022/11/30 11:28:48;;;;;;;24.85;11.63;;;;;;;;;;5030213;28;20022;-58
2022/11/30 11:31:21;;;;;;;21.08;9.35;;;;;;;;;;5030223;28;20013;-57
2022/11/30 11:33:51;;;;;;;23.90;11.30;;;;;;;;;;5028971;28;20029;-58
2022/11/30 11:36:23;;;;;;;18.98;9.32;;;;;;;;;;5010520;28;20532;-58
2022/11/30 11:38:48;;;;;;;21.88;9.95;;;;;;;;;;5010090;28;20026;-58
2022/11/30 11:41:16;;;;;;;19.97;9.83;;;;;;;;;;5010261;28;20113;-59
2022/11/30 11:44:00;;;;;;;20.33;8.90;;;;;;;;;;5013061;28;20041;-58
2022/11/30 11:46:25;;;;;;;20.83;10.20;;;;;;;;;;5028089;28;20029;-59
2022/11/30 11:48:59;;;;;;;24.60;10.27;;;;;;;;;;5029924;28;20029;-58
2022/11/30 11:51:34;;;;;;;22.23;9.60;;;;;;;;;;5029828;28;20491;-58
2022/11/30 11:54:19;;;;;;;21.30;10.10;;;;;;;;;;5030379;28;20027;-58
2022/11/30 11:56:45;;;;;;;22.67;10.82;;;;;;;;;;5031562;28;20508;-58
2022/11/30 11:59:26;;;;;;;21.58;10.77;;;;;;;;;;5033751;28;20104;-58
2022/11/30 12:01:56;;;;;;;19.95;9.82;;;;;;;;;;5033577;28;20029;-58
2022/11/30 12:04:40;;;;;;;22.15;10.35;;;;;;;;;;5033619;28;20040;-58
2022/11/30 12:07:05;;;;;;;;;;;;;;;;;;5032420;28;20029;-61
2022/11/30 12:09:34;;;;;;;23.17;10.25;;;;;;;;;;5033329;28;19909;-58
2022/11/30 12:11:59;;;;;;;21.90;10.07;;;;;;;;;;5033285;28;20045;-59
2022/11/30 12:14:25;;;;;;;22.77;10.73;;;;;;;;;;5031476;28;20067;-59
2022/11/30 12:16:53;;;;;;;24.02;11.10;;;;;;;;;;5031590;28;20104;-58
2022/11/30 12:19:20;;;;;;;27.92;12.48;;;;;;;;;;5032956;28;20029;-58
2022/11/30 12:22:00;;;;;;;26.70;12.40;;;;;;;;;;5033091;28;20112;-58
2022/11/30 12:24:32;;;;;;;25.20;12.10;;;;;;;;;;5033039;28;20120;-57
2022/11/30 12:26:57;;;;;;;26.40;11.43;;;;;;;;;;5031747;28;20030;-58
2022/11/30 12:29:24;;;;;;;22.63;10.90;;;;;;;;;;5033347;28;20021;-58
2022/11/30 12:31:55;;;;;;;27.02;11.50;;;;;;;;;;5032896;28;20016;-59
2022/11/30 12:34:37;;;;;;;24.52;10.02;;;;;;;;;;5031278;28;20472;-58
2022/11/30 12:37:17;;;;;;;22.48;10.77;;;;;;;;;;5033062;28;20022;-58
2022/11/30 12:39:48;;;;;;;25.42;10.80;;;;;;;;;;5033028;28;20453;-58
2022/11/30 12:42:19;;;;;;;22.27;9.55;;;;;;;;;;5032698;28;20396;-58
2022/11/30 12:44:56;;;;;;;23.70;11.07;;;;;;;;;;5031239;28;20072;-58
2022/11/30 12:47:40;;;;;;;21.17;10.18;;;;;;;;;;5033057;28;20049;-58
2022/11/30 12:50:17;;;;;;;20.67;10.43;;;;;;;;;;5033012;28;20029;-59
2022/11/30 12:52:52;;;;;;;20.75;9.68;;;;;;;;;;5032292;28;20029;-58
2022/11/30 12:55:21;;;;;;;21.15;9.88;;;;;;;;;;5030853;28;20045;-58
2022/11/30 12:57:55;;;;;;;22.65;10.50;;;;;;;;;;5032613;28;20020;-59
2022/11/30 13:00:22;;;;;;;22.35;10.55;;;;;;;;;;5030697;28;20366;-59
2022/11/30 13:02:50;;;;;;;22.02;10.50;;;;;;;;;;5032202;28;20023;-59
2022/11/30 13:05:20;;;;;;;22.92;11.25;;;;;;;;;;5032109;28;20018;-59
2022/11/30 13:07:50;;;;;;;21.67;10.20;;;;;;;;;;5032342;28;20026;-58
2022/11/30 13:10:36;;;;;;;23.63;11.32;;;;;;;;;;5030679;28;20500;-58
2022/11/30 13:13:03;;;;;;;24.88;12.63;;;;;;;;;;5031896;28;20412;-58
2022/11/30 13:15:31;;;;;;;21.55;10.07;;;;;;;;;;5032418;28;20037;-58
2022/11/30 13:17:57;;;;;;;22.13;10.13;;;;;;;;;;5032102;28;20428;-57
2022/11/30 13:20:28;;;;;;;19.98;9.98;;;;;;;;;;5030725;28;21278;-58
2022/11/30 13:23:04;;;;;;;21.77;10.15;;;;;;;;;;5032273;28;20032;-58
2022/11/30 13:25:29;;;;;;;20.40;10.05;;;;;;;;;;5032264;28;20040;-58
2022/11/30 13:27:54;;;;;;;24.38;9.98;;;;;;;;;;5032013;28;20033;-58
2022/11/30 13:30:25;;;;;;;29.50;11.30;;;;;;;;;;5032102;28;20465;-58
2022/11/30 13:32:51;;;;;;;22.70;9.63;;;;;;;;;;5029826;28;20515;-57
2022/11/30 13:35:28;;;;;;;22.10;10.30;;;;;;;;;;5031902;28;20045;-58
2022/11/30 13:38:13;;;;;;;23.65;9.82;;;;;;;;;;5032094;28;20136;-58
2022/11/30 13:40:38;;;;;;;21.60;10.02;;;;;;;;;;5031302;28;20029;-57
2022/11/30 13:43:04;;;;;;;21.33;9.67;;;;;;;;;;5029845;28;20030;-58
2022/11/30 13:45:33;;;;;;;20.50;9.53;;;;;;;;;;5031551;28;20083;-58
2022/11/30 13:48:15;;;;;;;19.40;9.40;;;;;;;;;;5031805;28;20543;-58
2022/11/30 13:50:40;;;;;;;22.05;10.65;;;;;;;;;;5031639;28;20025;-58
2022/11/30 13:53:08;;;;;;;21.80;10.43;;;;;;;;;;5031468;28;20049;-59
2022/11/30 13:55:42;;;;;;;22.48;10.80;;;;;;;;;;5031260;28;20041;-62
2022/11/30 13:58:10;;;;;;;22.02;10.40;;;;;;;;;;5031325;28;20477;-59
2022/11/30 14:00:36;;;;;;;21.58;10.73;;;;;;;;;;5028516;28;20113;-57
2022/11/30 14:03:07;;;;;;;22.83;10.75;;;;;;;;;;5031359;28;20104;-59
2022/11/30 14:05:39;;;;;;;23.80;10.70;;;;;;;;;;5030822;28;20072;-59
2022/11/30 14:08:04;;;;;;;21.15;10.65;;;;;;;;;;5031081;28;20078;-59
2022/11/30 14:10:33;;;;;;;22.27;9.77;;;;;;;;;;5027388;28;20022;-60
2022/11/30 14:13:00;;;;;;;21.80;9.93;;;;;;;;;;5030833;28;20114;-59
2022/11/30 14:15:25;;;;;;;;;;;;;;;;;;5031475;28;20483;-59
2022/11/30 14:17:54;;;;;;;20.85;9.65;;;;;;;;;;5030489;28;20635;-59
2022/11/30 14:20:23;;;;;;;19.98;9.68;;;;;;;;;;5030890;28;20025;-59
2022/11/30 14:22:49;;;;;;;20.77;9.98;;;;;;;;;;5028212;28;20021;-59